Details From TIST - St Thomas - Cyril E King
To MKJS - Montego Bay Sangster Intl
Flight Number -
Tags Generated
Created
Modified
Stats Distance 738 nm / 1,366 km
Max Altitude 0 ft / 0 m
Waypoints 5
Social Downloads 2
Likes 0
Share VATSIM

Download

Looking for another format? Having issues loading an existing format? Contact us
Advertisement - Login to hide

Notes

Generated

Route

TIST LRN26 ELODO ALMUS MKJS

ID Type Via Altitude Latitude Longitude Leg Dist Tot Dist Heading (true) Name
O TIST APT - 0 ft / 0 m 18.33687˚ -64.98343˚ - 0 nm - -
LRN26 FIX - 0 ft / 0 m 18.39822˚ -69.11392˚ 235 nm 235 nm 272° / 270° -
ELODO FIX - 0 ft / 0 m 18.36667˚ -73.80000˚ 267 nm 502 nm 270° / 269° -
ALMUS FIX - 0 ft / 0 m 18.47833˚ -77.57000˚ 214 nm 717 nm 272° / 271° -
O MKJS APT - 0 ft / 0 m 18.49873˚ -77.92482˚ 20 nm 737 nm 274° / 273° -

Altitude Profile

Advertisement - Login to hide

Weather


0- 5 10 15 20 25 30 35+ Temperature / ° C

Clouds and Precipitation
Forecast for 2017-12-12 18:00 UTC. Updated 44 minutes ago

Ground ~20,000 ft ~40,000 ft Winds

TIST

Details ICAO TIST (STT)
Name St Thomas - Cyril E King
Region USA (U.S. Virgin Islands)
Timezone Unknown (UTC+0.0)
Stats Elevation 23 ft / 7 m (AMSL)
Location 18.337300° -64.973344°
Runways 1
Magnetic Variation 13.636° W

METAR

TIST 121753Z AUTO 29/23 A2989

Decode

TAF

TAF TIST 121737Z 1218/1318 13008KT P6SM FEW028 FEW040 FM122300 VRB05KT P6SM SCT025 FM131430 17007KT P6SM FEW026

Decode

Departure Runways

ID Width Length Bearing (true) Bearing (mag) Surface Threshold Offset Overrun Length
10 151 ft / 46 m 6,992 ft / 2,131 m 87.44° 101.08° Asphalt 0 ft / 0 m 200 ft / 61 m
28 151 ft / 46 m 6,992 ft / 2,131 m 267.44° 281.08° Asphalt 2,300 ft / 701 m 200 ft / 61 m

MKJS

Details ICAO MKJS (MBJ)
Name Sangster Intl
Region Jamaica
Timezone America/Jamaica (UTC-5.0)
Stats Elevation 6 ft / 2 m (AMSL)
Location 18.503549° -77.913698°
Runways 1
Magnetic Variation 6.955° W

METAR

MKJS 121800Z 01015KT 5000 -RA BKN015 OVC030 25/24 Q1012 RERA

Decode

TAF

TAF MKJS 121715Z 1218/1318 03016KT 8000 RA SCT016 OVC030 TEMPO 1218/1224 5000 TSRA SCT016 SCT018CB OVC030 BECMG 1314/1316 07015KT SCT018 FEW022CB BKN032

Decode

Destination Runways

ID Width Length Bearing (true) Bearing (mag) Surface Threshold Offset Overrun Length
07 161 ft / 49 m 8,495 ft / 2,589 m 65.37° 72.32° Asphalt 220 ft / 67 m 312 ft / 95 m
25 161 ft / 49 m 8,495 ft / 2,589 m 245.37° 252.32° Asphalt 577 ft / 176 m 200 ft / 61 m

Approach Navaids

Runway Type Ident Frequency Range Bearing (true) Bearing (mag) Slope Elevation
07 Localiser ISIA 109.50 MHz 18 nm / 33 km 65.41° 72.36° - 4 ft / 1 m (AMSL)
07 Glidescope ISIA 109.50 MHz 10 nm / 19 km 65.37° 72.33° 3.00° 4 ft / 1 m (AMSL)

Popular Alternatives